• Join FlightAware (Why Join?)
  • Login
  • US Flag 
05:40AM EDT


 

Airport Tracker/Info


-or-


 

Live Flight TrackerFlight Track Log ✈ JTA65 ✈ 09-Apr-2013 ✈ RJFF / FUK - ROAH / OKA

Flight Track Log - Related Links

Times and Time Zones

All times are in EDT time to prevent confusion due to time zone crossing. See the JTA65 flight status page for this flight to view local times or setup timezone preferences in your user account.

Time Position Orientation Groundspeed Altitude Reporting Facility
EDT Latitude Longitude Course Direction KTS MPH feet Rate Location/Type
07:38AM 33.3206 130.3411 199° South  Level Estimated
07:39AM 33.2320 130.3049 199° South  Level Estimated
07:40AM 33.1433 130.2687 199° South  Level Estimated
07:41AM 33.0546 130.2326 199° South  Level Estimated
07:42AM 32.9658 130.1966 199° South  Level Estimated
07:43AM 32.8749 130.1598 199° South  Level Estimated
07:44AM 32.7840 130.1231 199° South  Level Estimated
07:45AM 32.6930 130.0864 199° South  Level Estimated
07:46AM 32.6021 130.0498 199° South  Level Estimated
07:47AM 32.5111 130.0133 199° South  Level Estimated
07:48AM 32.4202 129.9768 199° South  Level Estimated
07:49AM 32.3292 129.9405 199° South  Level Estimated
07:50AM 32.2382 129.9042 199° South  Level Estimated
07:51AM 32.1472 129.8679 199° South  Level Estimated
07:52AM 32.0562 129.8318 199° South  Level Estimated
07:53AM 31.9652 129.7957 199° South  Level Estimated
07:54AM 31.8741 129.7597 199° South  Level Estimated
07:55AM 31.7831 129.7237 199° South  Level Estimated
07:56AM 31.6920 129.6879 199° South  Level Estimated
07:57AM 31.6010 129.6521 199° South  Level Estimated
07:58AM 31.5099 129.6163 198° South  Level Estimated
07:59AM 31.4188 129.5807 198° South  Level Estimated
08:00AM 31.3277 129.5451 198° South  Level Estimated
08:01AM 31.2366 129.5096 198° South  Level Estimated
08:02AM 31.1455 129.4741 198° South  Level Estimated
08:03AM 31.0544 129.4387 198° South  Level Estimated
08:04AM 30.9633 129.4034 198° South  Level Estimated
08:05AM 30.8721 129.3682 198° South  Level Estimated
08:06AM 30.7810 129.3330 198° South  Level Estimated
08:07AM 30.6898 129.2979 198° South  Level Estimated
08:08AM 30.5987 129.2628 198° South  Level Estimated
08:09AM 30.5075 129.2278 198° South  Level Estimated
08:10AM 30.4163 129.1929 198° South  Level Estimated
08:11AM 30.3251 129.1581 198° South  Level Estimated
08:12AM 30.2339 129.1233 198° South  Level Estimated
08:13AM 30.1427 129.0885 198° South  Level Estimated
08:14AM 30.0514 129.0539 198° South  Level Estimated
08:15AM 29.9602 129.0193 198° South  Level Estimated
08:16AM 29.8690 128.9848 198° South  Level Estimated
08:17AM 29.7777 128.9503 198° South  Level Estimated
08:18AM 29.6864 128.9159 198° South  Level Estimated
08:19AM 29.5952 128.8815 198° South  Level Estimated
08:20AM 29.5039 128.8472 198° South  Level Estimated
08:21AM 29.4126 128.8130 198° South  Level Estimated
08:22AM 29.3213 128.7789 198° South  Level Estimated
08:23AM 29.2300 128.7448 198° South  Level Estimated
08:24AM 29.1387 128.7107 198° South  Level Estimated
08:25AM 29.0451 128.6759 198° South  Level Estimated
08:26AM 28.9514 128.6411 198° South  Level Estimated
08:27AM 28.8578 128.6064 198° South  Level Estimated
08:28AM 28.7641 128.5718 198° South  Level Estimated
08:29AM 28.6705 128.5372 198° South  Level Estimated
08:30AM 28.5768 128.5027 198° South  Level Estimated
08:31AM 28.4831 128.4682 198° South  Level Estimated
08:32AM 28.3894 128.4338 198° South  Level Estimated
08:33AM 28.2945 128.3990 198° South  Level Estimated
08:34AM 28.1996 128.3643 198° South  Level Estimated
08:35AM 28.1046 128.3296 198° South  Level Estimated
08:36AM 28.0097 128.2950 198° South  Level Estimated
08:37AM 27.9148 128.2605 198° South  Level Estimated
08:38AM 27.8198 128.2260 198° South  Level Estimated
08:39AM 27.7249 128.1916 198° South  Level Estimated
08:40AM 27.6299 128.1573 198° South  Level Estimated
08:41AM 27.5349 128.1230 198° South  Level Estimated
08:42AM 27.4399 128.0887 198° South  Level Estimated
08:43AM 27.3449 128.0545 198° South  Level Estimated
08:44AM 27.2500 128.0204 198° South  Level Estimated
08:45AM 27.1549 127.9864 198° South  Level Estimated
08:46AM 27.0599 127.9524 198° South  Level Estimated
08:47AM 26.9649 127.9184 198° South  Level Estimated
08:48AM 26.8699 127.8845 198° South  Level Estimated
08:49AM 26.7748 127.8507 198° South  Level Estimated
08:50AM 26.6798 127.8169 198° South  Level Estimated
08:51AM 26.5847 127.7832 198° South  Level Estimated
08:52AM 26.4897 127.7495 198° South  Level Estimated
08:53AM 26.3946 127.7159 198° South  Level Estimated
08:54AM 26.2995 127.6824 198° South  Level Estimated
08:55AM 26.2044 127.6489 198° South  Level Estimated
08:56AM 26.1958 127.6459 198° South  Level Estimated
08:57AM 26.1958 127.6459 347° North  Level Estimated
08:58AM 26.1958 127.6459 347° North  Level Estimated
08:59AM 26.1958 127.6459 347° North  Level Estimated
09:00AM 26.1958 127.6459 347° North  Level Estimated
09:01AM 26.1958 127.6459 347° North  Level Estimated
09:02AM 26.1958 127.6459 347° North  Level Estimated